Terminal Aerodrome Forecast
Issued by NWS Jackson, MS

Home | Current Version | Previous Version | Text Only | Print | Product List | Glossary On
Versions: 1 2 3 4 5 6 7 8 9 10 11 12 13 14 15 16 17 18 19 20 21 22 23 24
761
FTUS44 KJAN 172320
TAFHBG
TAF
KHBG 172320Z 1800/1824 17005KT P6SM VCSH BKN060
     FM180400 17003KT 4SM BR OVC025
     FM180600 00000KT 2SM BR OVC007
     FM180900 00000KT 1/4SM FG OVC001
     FM181500 00000KT 2SM BR OVC003
     FM181700 16003KT 4SM BR OVC007
     FM181800 15004KT P6SM OVC015
     FM182000 15004KT P6SM OVC050=

USA.gov is the U.S. government's official web portal to all federal, state and local government web resources and services.